Terminal Aerodrome Forecast
Issued by NWS Bismarck, ND

Home | Current Version | Previous Version | Graphics & Text | Print | Product List | Glossary On
Versions: 1 2 3 4 5 6 7 8 9 10 11 12 13 14
422
FTUS43 KBIS 200521
TAFISN
TAF
KISN 200521Z 2006/2106 11009KT P6SM VCFG BKN200
      TEMPO 2008/2011 4SM BR FEW008
     FM201600 12014KT P6SM SCT080 BKN200
     FM210100 13009KT P6SM FEW250=

USA.gov is the U.S. government's official web portal to all federal, state and local government web resources and services.